createdAt,value
2022-08-01T00:01:33.370Z,101496.47
2022-08-01T00:04:01.867Z,101503.59
2022-08-01T00:06:30.691Z,101510.75
2022-08-01T00:08:59.199Z,101512.56
2022-08-01T00:11:27.868Z,101513.44
2022-08-01T00:13:56.348Z,101511.72
2022-08-01T00:16:24.798Z,101518.84
2022-08-01T00:18:53.555Z,101526.88
2022-08-01T00:21:22.435Z,101518.03
2022-08-01T00:23:50.743Z,101521.63
2022-08-01T00:26:19.211Z,101522.53
2022-08-01T00:28:47.639Z,101524.34
2022-08-01T00:31:15.962Z,101527.00
2022-08-01T00:33:44.752Z,101527.97
2022-08-01T00:36:13.286Z,101527.09
2022-08-01T00:57:15.064Z,101537.97
2022-08-01T00:59:43.730Z,101529.97
2022-08-01T01:02:15.801Z,101536.19
2022-08-01T01:04:45.421Z,101540.66
2022-08-01T01:07:50.284Z,101540.69
2022-08-01T01:10:45.841Z,101541.56
2022-08-01T01:13:24.280Z,101541.56
2022-08-01T01:16:04.727Z,101536.22
2022-08-01T01:18:48.568Z,101533.56
2022-08-01T01:21:22.471Z,101538.88
2022-08-01T01:24:15.397Z,101538.00
2022-08-01T01:26:58.767Z,101540.69
2022-08-01T01:29:32.096Z,101541.63
2022-08-01T01:32:47.577Z,101538.09
2022-08-01T01:35:22.306Z,101545.25
2022-08-01T01:37:55.483Z,101544.41
2022-08-01T01:40:26.559Z,101545.28
2022-08-01T01:42:57.647Z,101540.88
2022-08-01T01:45:27.868Z,101545.28
2022-08-01T01:47:59.674Z,101551.53
2022-08-01T01:50:30.978Z,101551.53
2022-08-01T01:53:02.239Z,101560.41
2022-08-01T01:55:32.035Z,101555.09
2022-08-01T01:58:02.499Z,101566.63
2022-08-01T02:00:33.441Z,101563.09
2022-08-01T02:03:07.482Z,101572.88
2022-08-01T02:05:37.920Z,101573.75
2022-08-01T02:08:07.759Z,101571.13
2022-08-01T02:10:37.304Z,101576.44
2022-08-01T02:13:07.575Z,101581.78
2022-08-01T02:15:59.447Z,101587.16
2022-08-01T02:18:29.266Z,101586.28
2022-08-01T02:21:00.137Z,101594.28
2022-08-01T02:23:33.858Z,101596.13
2022-08-01T02:26:10.016Z,101597.03
2022-08-01T02:28:47.941Z,101591.72
2022-08-01T02:31:21.610Z,101587.25
2022-08-01T02:33:58.757Z,101591.72
2022-08-01T02:36:32.922Z,101590.84
2022-08-01T02:39:06.215Z,101593.53
2022-08-01T02:41:40.885Z,101586.47
2022-08-01T02:44:11.887Z,101589.13
2022-08-01T02:46:52.706Z,101599.78
2022-08-01T02:49:22.717Z,101610.44
2022-08-01T02:51:53.546Z,101599.88
2022-08-01T02:54:23.470Z,101604.38
2022-08-01T02:56:53.723Z,101614.16
2022-08-01T02:59:27.506Z,101615.97
2022-08-01T03:01:57.970Z,101615.09
2022-08-01T03:04:30.320Z,101621.31
2022-08-01T03:07:01.444Z,101615.19
2022-08-01T03:09:33.089Z,101623.16
2022-08-01T03:12:05.535Z,101620.53
2022-08-01T03:14:37.443Z,101625.88
2022-08-01T03:17:07.470Z,101618.81
2022-08-01T03:19:38.871Z,101625.94
2022-08-01T03:22:13.877Z,101633.97
2022-08-01T03:24:45.235Z,101626.88
2022-08-01T03:27:17.051Z,101638.41
2022-08-01T03:29:46.811Z,101639.34
2022-08-01T03:32:17.600Z,101640.22
2022-08-01T03:34:46.858Z,101651.78
2022-08-01T03:37:25.180Z,101638.50
2022-08-01T03:40:00.463Z,101644.75
2022-08-01T03:43:06.593Z,101648.31
2022-08-01T03:45:38.482Z,101645.66
2022-08-01T03:48:14.323Z,101643.94
2022-08-01T03:50:46.750Z,101635.09
2022-08-01T03:53:17.011Z,101636.88
2022-08-01T03:55:45.659Z,101642.22
2022-08-01T03:58:15.138Z,101641.38
2022-08-01T04:00:44.209Z,101639.66
2022-08-01T04:03:13.998Z,101644.06
2022-08-01T04:05:43.461Z,101654.69
2022-08-01T04:08:12.372Z,101653.81
2022-08-01T04:10:41.019Z,101659.13
2022-08-01T04:13:09.372Z,101664.44
2022-08-01T04:15:37.963Z,101654.72
2022-08-01T04:18:07.960Z,101663.59
2022-08-01T04:20:36.636Z,101658.31
2022-08-01T04:23:05.036Z,101658.31
2022-08-01T04:25:36.201Z,101666.28
2022-08-01T04:28:12.110Z,101667.16
2022-08-01T04:30:44.110Z,101675.13
2022-08-01T04:33:17.368Z,101668.91
2022-08-01T04:36:01.683Z,101681.31
2022-08-01T04:38:34.724Z,101678.66
2022-08-01T04:41:09.318Z,101689.28
2022-08-01T04:43:39.164Z,101698.13
2022-08-01T04:46:09.230Z,101700.78
2022-08-01T04:48:39.838Z,101696.34
2022-08-01T04:51:16.423Z,101711.38
2022-08-01T04:53:46.981Z,101711.38
2022-08-01T04:56:15.924Z,101714.81
2022-08-01T04:58:44.864Z,101711.16
2022-08-01T05:01:13.678Z,101708.44
2022-08-01T05:03:42.660Z,101713.69
2022-08-01T05:06:11.045Z,101716.19
2022-08-01T05:08:39.419Z,101719.59
2022-08-01T05:11:07.832Z,101717.78
2022-08-01T05:13:36.833Z,101710.66
2022-08-01T05:16:05.320Z,101722.22
2022-08-01T05:18:33.835Z,101718.72
2022-08-01T05:21:03.597Z,101722.34
2022-08-01T05:23:43.185Z,101721.50
2022-08-01T05:26:14.533Z,101723.28
2022-08-01T05:28:43.660Z,101728.56
2022-08-01T05:31:11.982Z,101729.47
2022-08-01T05:33:40.282Z,101730.34
2022-08-01T05:36:09.081Z,101729.44
2022-08-01T05:38:37.483Z,101731.94
2022-08-01T05:41:05.825Z,101733.50
2022-08-01T05:43:36.304Z,101729.88
2022-08-01T05:46:04.719Z,101731.69
2022-08-01T05:48:33.319Z,101731.69
2022-08-01T05:51:02.415Z,101736.09
2022-08-01T05:53:31.244Z,101737.06
2022-08-01T05:55:59.619Z,101740.72
2022-08-01T05:58:28.211Z,101739.88
2022-08-01T06:00:56.600Z,101746.13
2022-08-01T06:03:25.133Z,101744.41
2022-08-01T06:05:54.083Z,101743.59
2022-08-01T06:08:23.326Z,101746.28
2022-08-01T06:10:52.060Z,101747.19
2022-08-01T06:13:20.630Z,101744.59
2022-08-01T06:15:49.565Z,101749.91
2022-08-01T06:18:20.154Z,101751.72
2022-08-01T06:20:48.555Z,101756.16
2022-08-01T06:23:31.946Z,101751.69
2022-08-01T06:26:02.184Z,101761.41
2022-08-01T06:28:30.636Z,101764.13
2022-08-01T06:31:00.181Z,101763.25
2022-08-01T06:33:29.443Z,101774.78
2022-08-01T06:35:57.918Z,101768.53
2022-08-01T06:38:26.383Z,101770.31
2022-08-01T06:40:54.810Z,101777.44
2022-08-01T06:43:23.176Z,101772.13
2022-08-01T06:45:51.590Z,101785.41
2022-08-01T06:48:20.061Z,101792.50
2022-08-01T06:50:48.390Z,101782.72
2022-08-01T06:53:16.764Z,101788.03
2022-08-01T06:55:45.258Z,101781.78
2022-08-01T06:58:13.567Z,101790.66
2022-08-01T07:00:43.569Z,101786.16
2022-08-01T07:03:12.016Z,101794.06
2022-08-01T07:05:40.423Z,101793.97
2022-08-01T07:08:08.878Z,101797.38
2022-08-01T07:10:37.249Z,101805.19
2022-08-01T07:13:07.718Z,101796.22
2022-08-01T07:15:36.266Z,101796.16
2022-08-01T07:18:05.886Z,101797.03
2022-08-01T07:20:50.407Z,101808.59
2022-08-01T07:23:22.752Z,101808.59
2022-08-01T07:26:04.678Z,101803.22
2022-08-01T07:28:33.121Z,101805.78
2022-08-01T07:31:01.631Z,101801.22
2022-08-01T07:33:48.738Z,101801.91
2022-08-01T07:36:18.447Z,101807.00
2022-08-01T07:38:48.801Z,101812.13
2022-08-01T07:41:17.134Z,101814.78
2022-08-01T07:43:56.078Z,101812.00
2022-08-01T07:46:26.588Z,101828.75
2022-08-01T07:48:54.942Z,101825.28
2022-08-01T07:51:23.290Z,101829.81
2022-08-01T07:53:51.722Z,101835.19
2022-08-01T07:56:25.069Z,101834.28
2022-08-01T07:58:53.425Z,101836.13
2022-08-01T08:01:22.122Z,101842.31
2022-08-01T08:03:50.562Z,101842.34
2022-08-01T08:06:18.973Z,101841.38
2022-08-01T08:08:47.320Z,101849.34
2022-08-01T08:11:15.772Z,101844.00
2022-08-01T08:13:44.153Z,101848.41
2022-08-01T08:16:12.531Z,101848.31
2022-08-01T08:18:40.888Z,101852.78
2022-08-01T08:21:09.339Z,101853.63
2022-08-01T08:23:56.208Z,101857.16
2022-08-01T08:26:25.376Z,101850.00
2022-08-01T08:28:53.732Z,101846.44
2022-08-01T08:31:24.954Z,101856.28
2022-08-01T08:33:57.568Z,101848.25
2022-08-01T08:36:31.519Z,101863.44
2022-08-01T08:39:03.563Z,101865.34
2022-08-01T08:41:38.064Z,101865.34
2022-08-01T08:44:10.408Z,101866.25
2022-08-01T08:46:44.846Z,101875.22
2022-08-01T08:49:17.241Z,101871.66
2022-08-01T08:51:50.087Z,101869.84
2022-08-01T08:54:29.534Z,101870.75
2022-08-01T08:57:01.397Z,101872.56
2022-08-01T08:59:30.241Z,101869.94
2022-08-01T09:02:00.005Z,101873.38
2022-08-01T09:04:31.159Z,101871.47
2022-08-01T09:06:59.849Z,101877.63
2022-08-01T09:09:30.608Z,101887.47
2022-08-01T09:11:59.707Z,101884.69
2022-08-01T09:14:31.250Z,101885.44
2022-08-01T09:17:07.565Z,101893.44
2022-08-01T09:19:41.887Z,101894.31
2022-08-01T09:22:13.344Z,101909.41
2022-08-01T09:24:42.749Z,101899.63
2022-08-01T09:27:22.253Z,101903.25
2022-08-01T09:30:00.447Z,101905.84
2022-08-01T09:32:36.018Z,101913.75
2022-08-01T09:35:31.206Z,101916.28
2022-08-01T09:38:31.314Z,101926.94
2022-08-01T09:41:02.000Z,101925.91
2022-08-01T09:43:32.481Z,101919.56
2022-08-01T09:46:07.056Z,101916.84
2022-08-01T09:49:07.302Z,101929.50
2022-08-01T09:52:00.013Z,101918.94
2022-08-01T09:54:31.321Z,101931.38
2022-08-01T09:57:17.061Z,101929.75
2022-08-01T09:59:58.395Z,101918.16
2022-08-01T10:02:33.229Z,101930.66
2022-08-01T10:05:08.937Z,101934.25
2022-08-01T10:07:58.998Z,101935.22
2022-08-01T10:10:28.963Z,101930.81
2022-08-01T10:13:02.390Z,101930.72
2022-08-01T10:15:36.742Z,101935.13
2022-08-01T10:18:16.380Z,101932.53
2022-08-01T10:20:50.497Z,101934.28
2022-08-01T10:23:19.979Z,101938.78
2022-08-01T10:25:52.527Z,101937.97
2022-08-01T10:28:26.461Z,101946.75
2022-08-01T10:30:55.799Z,101944.84
2022-08-01T10:33:51.548Z,101938.56
2022-08-01T10:36:13.990Z,101942.88
2022-08-01T10:38:42.433Z,101936.56
2022-08-01T10:41:16.851Z,101941.09
2022-08-01T10:43:45.538Z,101943.94
2022-08-01T10:46:16.348Z,101938.59
2022-08-01T10:48:48.948Z,101933.19
2022-08-01T10:51:51.155Z,101932.09
2022-08-01T10:54:13.560Z,101942.63
2022-08-01T10:56:51.468Z,101954.13
2022-08-01T10:59:29.166Z,101943.50
2022-08-01T11:02:33.562Z,101939.94
2022-08-01T11:05:14.581Z,101944.34
2022-08-01T11:07:53.344Z,101934.47
2022-08-01T11:10:41.415Z,101945.06
2022-08-01T11:13:13.479Z,101944.94
2022-08-01T11:15:50.358Z,101947.41
2022-08-01T11:18:30.837Z,101944.53
2022-08-01T11:21:57.178Z,101952.66
2022-08-01T11:23:54.475Z,101949.97
2022-08-01T11:26:29.903Z,101949.09
2022-08-01T11:29:21.883Z,101952.56
2022-08-01T11:31:51.438Z,101952.66
2022-08-01T11:34:19.967Z,101955.38
2022-08-01T11:37:03.721Z,101956.28
2022-08-01T11:39:36.839Z,101957.97
2022-08-01T11:42:19.619Z,101948.88
2022-08-01T11:44:52.445Z,101956.63
2022-08-01T11:47:50.422Z,101959.16
2022-08-01T11:50:32.993Z,101956.72
2022-08-01T11:53:08.830Z,101957.72
2022-08-01T11:55:47.656Z,101956.00
2022-08-01T11:58:29.361Z,101958.56
2022-08-01T12:00:59.532Z,101955.84
2022-08-01T12:03:33.442Z,101956.91
2022-08-01T12:06:03.086Z,101961.44
2022-08-01T12:08:37.901Z,101952.44
2022-08-01T12:11:06.944Z,101962.09
2022-08-01T12:13:44.061Z,101961.00
2022-08-01T12:16:13.053Z,101964.31
2022-08-01T12:18:43.659Z,101948.91
2022-08-01T12:21:11.927Z,101965.00
2022-08-01T12:23:40.304Z,101961.44
2022-08-01T12:26:08.742Z,101957.69
2022-08-01T12:28:57.009Z,101953.13
2022-08-01T12:31:33.314Z,101956.72
2022-08-01T12:34:31.318Z,101955.94
2022-08-01T12:37:03.664Z,101955.00
2022-08-01T12:39:36.150Z,101962.22
2022-08-01T12:42:11.647Z,101960.59
2022-08-01T12:44:41.406Z,101959.69
2022-08-01T12:47:11.636Z,101947.13
2022-08-01T12:49:42.811Z,101952.34
2022-08-01T12:52:13.460Z,101949.63
2022-08-01T12:55:02.038Z,101956.81
2022-08-01T12:57:30.866Z,101943.47
2022-08-01T13:00:26.215Z,101944.25
2022-08-01T13:03:09.150Z,101941.13
2022-08-01T13:05:52.397Z,101944.94
2022-08-01T13:08:24.743Z,101941.59
2022-08-01T13:11:02.982Z,101947.91
2022-08-01T13:13:52.744Z,101952.25
2022-08-01T13:16:30.692Z,101941.59
2022-08-01T13:19:07.398Z,101950.53
2022-08-01T13:21:53.811Z,101943.47
2022-08-01T13:24:28.343Z,101953.19
2022-08-01T13:27:04.154Z,101959.28
2022-08-01T13:29:42.546Z,101959.44
2022-08-01T13:32:27.954Z,101964.78
2022-08-01T13:35:10.811Z,101967.59
2022-08-01T13:37:40.101Z,101961.28
2022-08-01T13:40:11.535Z,101958.47
2022-08-01T13:42:39.895Z,101967.19
2022-08-01T13:45:13.720Z,101966.16
2022-08-01T13:48:04.170Z,101969.69
2022-08-01T13:50:34.310Z,101964.03
2022-08-01T13:53:03.586Z,101968.44
2022-08-01T13:55:35.172Z,101965.91
2022-08-01T13:58:03.873Z,101959.78
2022-08-01T14:00:32.886Z,101962.53
2022-08-01T14:03:01.859Z,101959.13
2022-08-01T14:05:31.345Z,101959.28
2022-08-01T14:08:02.371Z,101960.22
2022-08-01T14:10:30.706Z,101952.16
2022-08-01T14:13:00.064Z,101951.13
2022-08-01T14:15:37.652Z,101949.22
2022-08-01T14:18:09.938Z,101945.41
2022-08-01T14:20:40.394Z,101938.94
2022-08-01T14:23:10.078Z,101952.16
2022-08-01T14:26:03.130Z,101952.31
2022-08-01T14:28:29.785Z,101959.81
2022-08-01T14:30:59.003Z,101958.94
2022-08-01T14:33:27.627Z,101954.41
2022-08-01T14:36:06.000Z,101951.78
2022-08-01T14:38:46.489Z,101955.25
2022-08-01T14:41:15.912Z,101950.81
2022-08-01T14:43:44.356Z,101951.75
2022-08-01T14:46:13.724Z,101965.19
2022-08-01T14:48:42.663Z,101960.63
2022-08-01T14:51:11.147Z,101960.53
2022-08-01T14:53:42.892Z,101957.88
2022-08-01T14:56:15.083Z,101962.44
2022-08-01T14:58:43.552Z,101954.44
2022-08-01T15:01:12.141Z,101964.31
2022-08-01T15:03:41.897Z,101960.81
2022-08-01T15:06:12.603Z,101951.00
2022-08-01T15:08:41.279Z,101957.28
2022-08-01T15:11:10.050Z,101954.81
2022-08-01T15:13:42.416Z,101951.41
2022-08-01T15:16:12.301Z,101959.44
2022-08-01T15:18:42.846Z,101951.56
2022-08-01T15:21:40.869Z,101956.06
2022-08-01T15:24:10.549Z,101957.03
2022-08-01T15:26:42.286Z,101951.69
2022-08-01T15:29:17.375Z,101952.53
2022-08-01T15:31:46.698Z,101944.59
2022-08-01T15:34:15.339Z,101947.41
2022-08-01T15:36:58.244Z,101947.41
2022-08-01T15:39:28.822Z,101941.28
2022-08-01T15:42:00.223Z,101940.59
2022-08-01T15:44:28.699Z,101948.69
2022-08-01T15:46:59.219Z,101948.84
2022-08-01T15:49:27.856Z,101954.41
2022-08-01T15:51:56.363Z,101950.06
2022-08-01T15:54:26.666Z,101949.31
2022-08-01T15:56:55.132Z,101952.94
2022-08-01T15:59:23.936Z,101950.31
2022-08-01T16:01:52.725Z,101946.78
2022-08-01T16:04:21.379Z,101944.09
2022-08-01T16:06:55.425Z,101955.66
2022-08-01T16:09:24.144Z,101954.75
2022-08-01T16:11:52.790Z,101953.91
2022-08-01T16:14:21.959Z,101960.19
2022-08-01T16:16:50.448Z,101970.00
2022-08-01T16:19:19.571Z,101958.47
2022-08-01T16:21:48.167Z,101966.56
2022-08-01T16:24:16.966Z,101963.09
2022-08-01T16:26:45.296Z,101965.00
2022-08-01T16:29:13.722Z,101973.09
2022-08-01T16:32:04.700Z,101972.28
2022-08-01T16:34:30.656Z,101974.13
2022-08-01T16:36:59.075Z,101967.91
2022-08-01T16:39:33.989Z,101966.13
2022-08-01T16:42:03.722Z,101979.47
2022-08-01T16:44:33.928Z,101980.41
2022-08-01T16:47:05.276Z,101982.22
2022-08-01T16:49:34.111Z,101980.47
2022-08-01T16:52:05.102Z,101962.69
2022-08-01T16:54:33.700Z,101969.81
2022-08-01T16:57:08.217Z,101968.03
2022-08-01T16:59:41.747Z,101974.28
2022-08-01T17:02:11.266Z,101969.84
2022-08-01T17:04:39.853Z,101973.44
2022-08-01T17:07:08.624Z,101971.66
2022-08-01T17:09:43.185Z,101969.97
2022-08-01T17:12:13.961Z,101968.25
2022-08-01T17:14:51.767Z,101965.59
2022-08-01T17:17:25.097Z,101967.44
2022-08-01T17:19:53.969Z,101956.81
2022-08-01T17:22:22.785Z,101964.84
2022-08-01T17:24:52.025Z,101961.28
2022-08-01T17:27:20.525Z,101956.84
2022-08-01T17:29:48.976Z,101956.84
2022-08-01T17:32:17.652Z,101965.72
2022-08-01T17:34:46.111Z,101964.84
2022-08-01T17:37:14.570Z,101958.59
2022-08-01T17:39:43.310Z,101956.84
2022-08-01T17:42:12.982Z,101960.44
2022-08-01T17:44:41.592Z,101959.53
2022-08-01T17:47:34.407Z,101961.31
2022-08-01T17:50:06.782Z,101956.00
2022-08-01T17:52:35.831Z,101962.22
2022-08-01T17:55:05.330Z,101962.25
2022-08-01T17:57:55.226Z,101965.84
2022-08-01T18:00:23.620Z,101967.66
2022-08-01T18:02:51.963Z,101959.66
2022-08-01T18:05:20.715Z,101971.25
2022-08-01T18:08:07.477Z,101974.78
2022-08-01T18:10:40.000Z,101986.38
2022-08-01T18:13:10.477Z,101983.72
2022-08-01T18:15:39.096Z,101966.88
2022-08-01T18:18:07.749Z,101973.13
2022-08-01T18:20:36.853Z,101968.72
2022-08-01T18:23:08.879Z,101973.16
2022-08-01T18:25:38.208Z,101979.41
2022-08-01T18:28:22.751Z,101974.09
2022-08-01T18:30:57.581Z,101975.03
2022-08-01T18:33:25.914Z,101978.56
2022-08-01T18:35:54.547Z,101986.59
2022-08-01T18:38:24.257Z,101975.94
2022-08-01T18:40:54.467Z,101988.38
2022-08-01T18:43:22.840Z,101989.25
2022-08-01T18:45:51.261Z,101979.53
2022-08-01T18:48:20.178Z,101999.09
2022-08-01T18:50:49.343Z,101993.81
2022-08-01T18:53:18.865Z,101995.59
2022-08-01T18:55:47.530Z,101993.81
2022-08-01T18:58:16.039Z,101991.19
2022-08-01T19:00:44.452Z,101994.72
2022-08-01T19:03:13.770Z,101996.50
2022-08-01T19:05:43.084Z,101992.97
2022-08-01T19:08:12.650Z,101989.47
2022-08-01T19:10:42.325Z,101985.06
2022-08-01T19:13:10.997Z,101980.63
2022-08-01T19:15:39.372Z,101984.22
2022-08-01T19:18:09.479Z,101986.88
2022-08-01T19:20:38.965Z,101983.34
2022-08-01T19:23:25.858Z,101988.69
2022-08-01T19:25:57.329Z,101978.97
2022-08-01T19:28:27.072Z,101980.75
2022-08-01T19:30:56.713Z,101986.06
2022-08-01T19:33:31.847Z,101981.66
2022-08-01T19:36:00.696Z,101985.22
2022-08-01T19:38:30.116Z,101984.34
2022-08-01T19:40:59.305Z,101978.09
2022-08-01T19:43:28.100Z,101994.91
2022-08-01T19:45:57.022Z,101990.50
2022-08-01T19:48:25.725Z,101998.44
2022-08-01T19:50:55.312Z,101991.34
2022-08-01T19:53:25.037Z,101999.28
2022-08-01T19:55:53.963Z,101996.63
2022-08-01T19:58:27.326Z,101996.63
2022-08-01T20:00:57.645Z,101999.28
2022-08-01T20:03:28.418Z,102001.91
2022-08-01T20:05:56.969Z,102000.13
2022-08-01T20:08:26.354Z,102000.09
2022-08-01T20:10:55.395Z,102000.09
2022-08-01T20:13:24.089Z,101987.69
2022-08-01T20:15:52.937Z,101988.56
2022-08-01T20:18:22.135Z,101989.44
2022-08-01T20:20:53.078Z,101987.66
2022-08-01T20:23:24.549Z,101986.72
2022-08-01T20:26:00.262Z,101989.38
2022-08-01T20:28:29.653Z,101992.00
2022-08-01T20:31:05.341Z,101991.09
2022-08-01T20:33:39.454Z,101992.81
2022-08-01T20:36:12.445Z,101995.44
2022-08-01T20:38:56.553Z,101994.53
2022-08-01T20:41:27.284Z,101998.06
2022-08-01T20:43:59.726Z,101987.44
2022-08-01T20:46:29.283Z,101992.69
2022-08-01T20:48:58.880Z,101994.44
2022-08-01T20:51:29.086Z,101996.19
2022-08-01T20:53:58.544Z,101989.13
2022-08-01T20:56:43.688Z,101997.03
2022-08-01T20:59:40.057Z,101994.38
2022-08-01T21:02:55.274Z,101989.91
2022-08-01T21:05:31.737Z,101991.66
2022-08-01T21:08:07.682Z,101987.25
2022-08-01T21:10:37.346Z,101984.56
2022-08-01T21:13:08.354Z,101988.09
2022-08-01T21:16:21.964Z,101977.44
2022-08-01T21:19:18.132Z,101981.84
2022-08-01T21:22:10.760Z,101975.63
2022-08-01T21:25:05.373Z,101975.59
2022-08-01T21:27:35.390Z,101967.63
2022-08-01T21:30:07.762Z,101975.56
2022-08-01T21:32:37.906Z,101983.47
2022-08-01T21:35:15.666Z,101994.06
2022-08-01T21:37:47.945Z,102000.22
2022-08-01T21:40:35.703Z,102012.56
2022-08-01T21:43:06.878Z,102004.59
2022-08-01T21:45:38.232Z,102014.28
2022-08-01T21:48:30.949Z,102015.19
2022-08-01T21:51:11.057Z,102012.50
2022-08-01T21:53:45.194Z,102023.97
2022-08-01T21:56:31.356Z,102012.47
2022-08-01T21:59:20.864Z,102016.00
2022-08-01T22:01:59.418Z,102010.69
2022-08-01T22:04:41.177Z,102011.56
2022-08-01T22:07:14.942Z,102009.78
2022-08-01T22:09:48.677Z,102001.84
2022-08-01T22:12:18.933Z,102000.94
2022-08-01T22:14:50.163Z,101999.16
2022-08-01T22:17:25.147Z,102007.94
2022-08-01T22:19:56.422Z,102007.03
2022-08-01T22:22:44.279Z,102006.13
2022-08-01T22:25:15.994Z,102001.72
2022-08-01T22:28:06.363Z,101992.84
2022-08-01T22:30:36.040Z,101990.16
2022-08-01T22:33:08.038Z,101990.13
2022-08-01T22:35:47.587Z,101976.84
2022-08-01T22:38:21.079Z,101972.41
2022-08-01T22:40:59.924Z,101979.47
2022-08-01T22:43:41.822Z,101985.66
2022-08-01T22:46:33.499Z,101989.16
2022-08-01T22:49:09.345Z,101993.53
2022-08-01T22:51:41.366Z,101988.19
2022-08-01T22:54:15.248Z,101982.91
2022-08-01T22:56:56.046Z,101989.94
2022-08-01T22:59:41.808Z,101991.66
2022-08-01T23:02:15.590Z,101993.44
2022-08-01T23:04:48.028Z,101983.75
2022-08-01T23:07:23.587Z,101984.59
2022-08-01T23:09:55.248Z,101993.41
2022-08-01T23:12:26.146Z,101989.84
2022-08-01T23:14:55.665Z,101991.59
2022-08-01T23:17:31.338Z,101992.44
2022-08-01T23:20:06.907Z,101992.41
2022-08-01T23:22:37.346Z,101990.66
2022-08-01T23:25:16.323Z,101986.25
2022-08-01T23:28:03.747Z,101982.72
2022-08-01T23:30:38.426Z,101980.03
2022-08-01T23:33:07.436Z,101968.56
2022-08-01T23:35:39.094Z,101975.63
2022-08-01T23:38:10.094Z,101972.97
2022-08-01T23:40:39.422Z,101979.13
2022-08-01T23:43:16.848Z,101970.31
2022-08-01T23:46:02.070Z,101970.31
2022-08-01T23:48:37.533Z,101964.13
2022-08-01T23:51:07.029Z,101950.00
2022-08-01T23:53:37.621Z,101954.44
2022-08-01T23:56:07.136Z,101951.78
2022-08-01T23:58:35.682Z,101948.28
